Time;durP1;ratioP1;P1;durP2;ratioP2;P2;SDS_P1;SDS_P2;PMS_P1;PMS_P2;Temp;Humidity;BMP_temperature;BMP_pressure;BME280_temperature;BME280_humidity;BME280_pressure;Samples;Min_cycle;Max_cycle;Signal;HPM_P1;HPM_P2
2024/01/15 00:01:08;;;;;;;10.02;5.65;;;16.30;32.10;;;;;;5149744;27;45260;-64
2024/01/15 00:03:35;;;;;;;7.47;5.32;;;16.30;32.10;;;;;;5149375;27;45488;-64
2024/01/15 00:06:04;;;;;;;8.85;5.78;;;16.30;32.10;;;;;;5149614;27;45405;-64
2024/01/15 00:08:31;;;;;;;10.65;5.78;;;16.30;32.10;;;;;;5149526;27;45596;-64
2024/01/15 00:10:58;;;;;;;8.15;5.75;;;16.30;32.10;;;;;;5149242;27;45309;-65
2024/01/15 00:13:24;;;;;;;8.77;5.72;;;16.30;32.10;;;;;;5149456;27;45277;-64
2024/01/15 00:15:51;;;;;;;8.02;5.22;;;16.30;32.10;;;;;;5149569;27;45307;-65
2024/01/15 00:18:18;;;;;;;9.25;5.88;;;16.20;32.10;;;;;;5149151;27;46170;-65
2024/01/15 00:20:45;;;;;;;8.10;4.90;;;16.20;32.10;;;;;;5149205;27;45252;-65
2024/01/15 00:23:13;;;;;;;9.63;5.82;;;16.20;32.10;;;;;;5149334;27;45429;-64
2024/01/15 00:25:40;;;;;;;8.27;5.30;;;16.20;32.10;;;;;;5149450;27;45228;-64
2024/01/15 00:28:07;;;;;;;8.25;4.82;;;16.20;32.10;;;;;;5146261;27;45346;-65
2024/01/15 00:30:34;;;;;;;8.52;5.43;;;16.20;32.70;;;;;;5148960;27;45413;-65
2024/01/15 00:33:00;;;;;;;8.15;5.50;;;16.20;32.10;;;;;;5149228;27;45360;-65
2024/01/15 00:35:27;;;;;;;8.30;5.53;;;16.20;32.70;;;;;;5149439;27;45167;-65
2024/01/15 00:37:54;;;;;;;9.00;5.18;;;16.20;32.10;;;;;;5148749;27;46240;-65
2024/01/15 00:40:22;;;;;;;10.15;5.90;;;16.20;32.10;;;;;;5148951;27;45337;-65
2024/01/15 00:42:49;;;;;;;8.13;4.95;;;16.20;32.20;;;;;;5109808;27;1128772;-65
2024/01/15 00:45:16;;;;;;;7.60;5.07;;;16.20;32.20;;;;;;5149772;27;45388;-64
2024/01/15 00:47:44;;;;;;;7.75;4.57;;;16.10;32.20;;;;;;5149895;27;45479;-64
2024/01/15 00:50:11;;;;;;;8.85;5.65;;;16.10;32.20;;;;;;5150343;27;45649;-65
2024/01/15 00:52:37;;;;;;;7.63;5.38;;;16.10;32.20;;;;;;5150343;27;45391;-65
2024/01/15 00:55:05;;;;;;;7.30;5.05;;;16.10;32.80;;;;;;5150056;27;45389;-65
2024/01/15 00:57:33;;;;;;;8.07;4.88;;;16.10;32.20;;;;;;5149959;27;45598;-65
2024/01/15 01:00:00;;;;;;;9.25;5.40;;;16.10;32.20;;;;;;5149847;27;45136;-65
2024/01/15 01:02:27;;;;;;;8.88;6.40;;;16.10;32.80;;;;;;5150005;27;45547;-65
2024/01/15 01:04:54;;;;;;;8.10;5.30;;;16.10;32.20;;;;;;5150112;27;45633;-65
2024/01/15 01:07:21;;;;;;;7.85;4.80;;;16.10;32.30;;;;;;5149754;27;45188;-64
2024/01/15 01:09:48;;;;;;;8.73;5.65;;;16.10;32.30;;;;;;5148678;27;45209;-65
2024/01/15 01:12:14;;;;;;;8.93;6.00;;;16.00;32.30;;;;;;5149669;27;45213;-65
2024/01/15 01:14:43;;;;;;;9.40;5.32;;;16.10;32.30;;;;;;5150101;27;45357;-64
2024/01/15 01:17:09;;;;;;;9.93;5.30;;;16.00;32.30;;;;;;5149322;27;45408;-65
2024/01/15 01:19:36;;;;;;;9.20;5.57;;;16.10;32.40;;;;;;5149450;27;45329;-64
2024/01/15 01:22:03;;;;;;;7.95;5.30;;;16.00;32.30;;;;;;5149635;27;45290;-65
2024/01/15 01:24:30;;;;;;;6.55;4.72;;;16.00;32.40;;;;;;5149860;27;45428;-65
2024/01/15 01:26:57;;;;;;;9.80;6.18;;;16.00;32.40;;;;;;5149098;27;46357;-65
2024/01/15 01:29:24;;;;;;;8.15;4.55;;;16.00;32.40;;;;;;5148691;27;45379;-64
2024/01/15 01:31:52;;;;;;;10.05;6.55;;;16.00;32.40;;;;;;5149426;27;45294;-64
2024/01/15 01:34:19;;;;;;;7.78;6.03;;;16.00;32.40;;;;;;5149439;27;45186;-65
2024/01/15 01:36:46;;;;;;;7.30;5.95;;;16.00;32.40;;;;;;5149220;27;47029;-64
2024/01/15 01:39:13;;;;;;;7.63;4.90;;;16.00;32.40;;;;;;5149242;27;45360;-65
2024/01/15 01:41:40;;;;;;;8.10;5.15;;;16.00;32.50;;;;;;5149100;27;45361;-65
2024/01/15 01:44:07;;;;;;;7.47;4.68;;;16.00;32.50;;;;;;5149336;27;45481;-66
2024/01/15 01:46:33;;;;;;;5.90;4.15;;;15.90;32.40;;;;;;5146266;27;46157;-66
2024/01/15 01:49:05;;;;;;;8.35;5.18;;;15.90;32.40;;;;;;5148924;27;45251;-66
2024/01/15 01:51:32;;;;;;;8.00;4.63;;;16.00;32.50;;;;;;5149421;27;45405;-65
2024/01/15 01:53:59;;;;;;;5.18;3.97;;;16.00;32.50;;;;;;5149119;27;45381;-65
2024/01/15 01:56:25;;;;;;;5.47;4.05;;;16.00;32.50;;;;;;5148763;27;46502;-64
2024/01/15 01:58:52;;;;;;;10.60;5.03;;;16.00;32.40;;;;;;5148852;27;45323;-64
2024/01/15 02:01:19;;;;;;;7.03;4.40;;;16.00;32.40;;;;;;5148944;27;45356;-65
2024/01/15 02:03:46;;;;;;;7.35;4.40;;;16.00;32.50;;;;;;5148965;27;45308;-64
2024/01/15 02:06:14;;;;;;;8.32;5.22;;;16.00;32.50;;;;;;5148543;27;45316;-65
2024/01/15 02:08:42;;;;;;;6.95;4.72;;;16.00;32.50;;;;;;5148665;27;45265;-64
2024/01/15 02:11:09;;;;;;;5.97;4.05;;;16.00;32.50;;;;;;5148413;27;45373;-64
2024/01/15 02:13:35;;;;;;;6.70;4.45;;;16.00;32.40;;;;;;5148537;27;45403;-65
2024/01/15 02:16:02;;;;;;;7.60;4.63;;;16.00;32.50;;;;;;5148368;27;46700;-66
2024/01/15 02:18:29;;;;;;;6.55;4.70;;;16.00;32.50;;;;;;5148675;27;45317;-65
2024/01/15 02:20:56;;;;;;;7.13;5.45;;;16.00;32.40;;;;;;5148519;27;45141;-65
2024/01/15 02:23:24;;;;;;;8.43;6.25;;;15.90;32.40;;;;;;5148769;27;45377;-65
2024/01/15 02:25:51;;;;;;;8.25;6.22;;;15.90;32.50;;;;;;5147962;27;45386;-65
2024/01/15 02:28:18;;;;;;;7.63;5.63;;;15.90;32.50;;;;;;5148439;27;45192;-64
2024/01/15 02:30:45;;;;;;;8.23;5.93;;;15.90;32.50;;;;;;5145757;27;45326;-64
2024/01/15 02:33:12;;;;;;;8.15;5.75;;;15.90;32.50;;;;;;5148721;27;45309;-65
2024/01/15 02:35:39;;;;;;;8.30;6.07;;;15.90;32.50;;;;;;5148288;27;46393;-64
2024/01/15 02:38:06;;;;;;;6.80;4.95;;;15.90;32.50;;;;;;5148402;27;45403;-65
2024/01/15 02:40:34;;;;;;;7.65;5.55;;;15.90;32.50;;;;;;5148179;27;45283;-64
2024/01/15 02:43:01;;;;;;;7.18;5.38;;;15.90;32.50;;;;;;5148422;27;45512;-65
2024/01/15 02:45:28;;;;;;;9.60;5.30;;;15.90;32.50;;;;;;5147983;27;45364;-65
2024/01/15 02:47:54;;;;;;;9.35;5.38;;;15.90;32.50;;;;;;5148229;27;45270;-65
2024/01/15 02:50:21;;;;;;;8.30;5.43;;;15.90;32.50;;;;;;5148051;27;45400;-64
2024/01/15 02:52:48;;;;;;;7.63;4.68;;;16.00;33.10;;;;;;5147918;27;45405;-64
2024/01/15 02:55:15;;;;;;;8.55;5.05;;;16.00;32.50;;;;;;5147838;27;45490;-65
2024/01/15 02:57:43;;;;;;;8.25;4.80;;;16.00;32.60;;;;;;5148015;27;45239;-64
2024/01/15 03:00:11;;;;;;;8.23;5.22;;;15.90;32.50;;;;;;5148206;27;45334;-65
2024/01/15 03:02:39;;;;;;;7.57;5.25;;;15.90;32.40;;;;;;5148222;27;45239;-65
2024/01/15 03:05:07;;;;;;;7.28;4.57;;;16.00;32.50;;;;;;5147769;27;46283;-64
2024/01/15 03:07:34;;;;;;;6.95;4.72;;;15.90;32.50;;;;;;5147611;27;46324;-64
2024/01/15 03:10:01;;;;;;;7.30;4.97;;;15.90;33.10;;;;;;5147779;27;45412;-64
2024/01/15 03:12:27;;;;;;;7.78;4.90;;;15.90;32.50;;;;;;5148011;27;45445;-64
2024/01/15 03:14:56;;;;;;;7.80;5.03;;;15.90;32.50;;;;;;5147453;27;45376;-64
2024/01/15 03:17:23;;;;;;;9.45;5.40;;;16.00;32.60;;;;;;5147793;27;45723;-64
2024/01/15 03:19:50;;;;;;;6.82;4.88;;;15.90;32.50;;;;;;5147519;27;45351;-64
2024/01/15 03:22:17;;;;;;;10.57;5.85;;;15.90;32.50;;;;;;5147775;27;45390;-65
2024/01/15 03:24:44;;;;;;;9.00;6.90;;;15.90;33.10;;;;;;5147076;27;46799;-65
2024/01/15 03:27:11;;;;;;;9.73;6.53;;;15.90;32.50;;;;;;5147600;27;45231;-64
2024/01/15 03:29:38;;;;;;;8.88;5.25;;;15.90;32.60;;;;;;5147512;27;45320;-65
2024/01/15 03:32:06;;;;;;;6.57;4.85;;;15.90;32.60;;;;;;5147711;27;45361;-65
2024/01/15 03:34:33;;;;;;;8.05;5.93;;;15.90;32.60;;;;;;5150156;27;45310;-65
2024/01/15 03:37:00;;;;;;;5.70;4.47;;;16.00;32.60;;;;;;5151083;27;45178;-66
2024/01/15 03:39:26;;;;;;;8.27;6.10;;;15.90;32.50;;;;;;5151208;27;45255;-65
2024/01/15 03:41:53;;;;;;;9.50;5.07;;;15.90;33.10;;;;;;5150819;27;45505;-64
2024/01/15 03:44:20;;;;;;;8.68;4.88;;;15.90;32.60;;;;;;5150782;27;45491;-65
2024/01/15 03:46:47;;;;;;;8.75;5.47;;;15.90;32.60;;;;;;5150717;27;45443;-65
2024/01/15 03:49:15;;;;;;;7.85;4.85;;;15.90;32.60;;;;;;5150953;27;45178;-65
2024/01/15 03:51:42;;;;;;;7.68;5.35;;;15.90;32.60;;;;;;5151018;27;45264;-65
2024/01/15 03:54:09;;;;;;;10.23;5.32;;;15.90;32.60;;;;;;5150816;27;46469;-65
2024/01/15 03:56:36;;;;;;;8.25;4.93;;;15.90;32.50;;;;;;5150612;27;45390;-64
2024/01/15 03:59:02;;;;;;;9.38;5.70;;;15.90;32.50;;;;;;5150735;27;45391;-65
2024/01/15 04:01:29;;;;;;;9.52;6.15;;;15.90;32.50;;;;;;5151120;27;45201;-65
2024/01/15 04:04:01;;;;;;;9.27;5.93;;;15.90;32.50;;;;;;5150347;27;45448;-65
2024/01/15 04:06:29;;;;;;;8.30;5.28;;;15.90;32.50;;;;;;5150309;27;45325;-65
2024/01/15 04:08:56;;;;;;;8.63;5.60;;;15.90;32.50;;;;;;5150550;27;45231;-65
2024/01/15 04:11:23;;;;;;;8.77;6.32;;;15.90;32.50;;;;;;5150655;27;45545;-65
2024/01/15 04:13:50;;;;;;;9.45;5.18;;;16.00;32.60;;;;;;5150299;27;46384;-64
2024/01/15 04:16:16;;;;;;;7.80;6.35;;;16.00;32.50;;;;;;5150204;27;45294;-64
2024/01/15 04:18:43;;;;;;;9.18;5.78;;;16.10;32.40;;;;;;5150328;27;45312;-65
2024/01/15 04:21:10;;;;;;;7.07;4.63;;;16.10;32.30;;;;;;5150754;27;45468;-65
2024/01/15 04:23:39;;;;;;;9.25;6.20;;;16.20;32.30;;;;;;5150168;27;45330;-66
2024/01/15 04:26:05;;;;;;;9.23;7.13;;;16.30;32.10;;;;;;5150071;27;45376;-65
2024/01/15 04:28:32;;;;;;;8.25;6.05;;;16.30;32.00;;;;;;5150349;27;45365;-65
2024/01/15 04:30:59;;;;;;;7.93;5.70;;;16.40;31.90;;;;;;5150347;27;45149;-65
2024/01/15 04:33:26;;;;;;;9.23;6.88;;;16.50;31.80;;;;;;5149963;27;46372;-65
2024/01/15 04:35:53;;;;;;;8.35;5.18;;;16.60;31.60;;;;;;5149967;27;45178;-65
2024/01/15 04:38:19;;;;;;;6.72;4.72;;;16.70;31.70;;;;;;5147406;27;45401;-66
2024/01/15 04:40:48;;;;;;;8.32;5.05;;;16.80;31.40;;;;;;5150181;27;45363;-66
2024/01/15 04:43:14;;;;;;;10.18;5.68;;;16.90;31.30;;;;;;5149748;27;45296;-66
2024/01/15 04:45:41;;;;;;;10.90;5.20;;;16.90;31.20;;;;;;5148522;27;45258;-66
2024/01/15 04:48:08;;;;;;;7.35;5.15;;;17.00;31.20;;;;;;5149811;27;45407;-65
2024/01/15 04:50:35;;;;;;;7.85;5.60;;;17.00;31.10;;;;;;5149636;27;45377;-65
2024/01/15 04:53:02;;;;;;;7.13;5.03;;;17.10;31.10;;;;;;5149566;27;45472;-65
2024/01/15 04:55:29;;;;;;;8.40;5.35;;;17.10;31.10;;;;;;5149618;27;45259;-65
2024/01/15 04:57:57;;;;;;;8.52;5.32;;;17.20;31.70;;;;;;5149853;27;45265;-65
2024/01/15 05:00:24;;;;;;;8.82;5.15;;;17.20;31.00;;;;;;5149904;27;45289;-65
2024/01/15 05:02:50;;;;;;;11.18;5.93;;;17.20;30.90;;;;;;5149464;27;46372;-65
2024/01/15 05:05:17;;;;;;;11.32;5.30;;;17.30;30.90;;;;;;5149619;27;45368;-65
2024/01/15 05:07:44;;;;;;;8.38;5.28;;;17.30;30.90;;;;;;5149639;27;45271;-65
2024/01/15 05:10:11;;;;;;;9.77;5.40;;;17.40;30.90;;;;;;5149958;27;45324;-65
2024/01/15 05:12:38;;;;;;;9.70;4.90;;;17.40;30.80;;;;;;5149435;27;45662;-66
2024/01/15 05:15:07;;;;;;;8.23;4.88;;;17.40;30.80;;;;;;5149292;27;45283;-66
2024/01/15 05:17:34;;;;;;;9.10;5.38;;;17.50;30.80;;;;;;5149485;27;45173;-65
2024/01/15 05:20:00;;;;;;;8.25;4.82;;;17.50;30.70;;;;;;5149499;27;45189;-65
2024/01/15 05:22:27;;;;;;;7.88;4.93;;;17.50;30.60;;;;;;5149115;27;45459;-65
2024/01/15 05:24:54;;;;;;;10.30;5.70;;;17.60;30.60;;;;;;5149335;27;45331;-66
2024/01/15 05:27:21;;;;;;;9.05;5.05;;;17.60;30.60;;;;;;5149188;27;45319;-65
2024/01/15 05:29:48;;;;;;;7.38;4.90;;;17.60;30.60;;;;;;5149527;27;45421;-65
2024/01/15 05:32:16;;;;;;;7.75;4.68;;;17.70;30.60;;;;;;5148750;27;45588;-65
2024/01/15 05:34:43;;;;;;;9.10;5.32;;;17.70;30.60;;;;;;5148987;27;45289;-65
2024/01/15 05:37:10;;;;;;;8.82;4.88;;;17.70;30.60;;;;;;5149334;27;45349;-65
2024/01/15 05:39:36;;;;;;;9.70;4.78;;;17.80;30.50;;;;;;5149294;27;45354;-65
2024/01/15 05:42:04;;;;;;;7.72;4.90;;;17.80;30.50;;;;;;5148652;27;46386;-65
2024/01/15 05:44:31;;;;;;;7.93;4.65;;;17.80;30.50;;;;;;5149089;27;45349;-66
2024/01/15 05:46:57;;;;;;;7.40;4.05;;;17.90;30.50;;;;;;5148916;27;45210;-65
2024/01/15 05:49:26;;;;;;;6.65;4.75;;;17.90;30.40;;;;;;5149041;27;45304;-67
2024/01/15 05:51:52;;;;;;;8.25;4.65;;;17.90;30.30;;;;;;5145949;27;46139;-65
2024/01/15 05:54:19;;;;;;;7.95;4.82;;;18.00;30.40;;;;;;5149119;27;45195;-65
2024/01/15 05:56:46;;;;;;;7.93;5.07;;;18.00;30.30;;;;;;5148404;27;45233;-65
2024/01/15 05:59:13;;;;;;;7.57;4.68;;;18.00;30.30;;;;;;5148992;27;45390;-65
2024/01/15 06:01:40;;;;;;;8.50;4.78;;;18.00;30.30;;;;;;5151278;27;45518;-65
2024/01/15 06:04:07;;;;;;;8.07;4.30;;;18.10;30.30;;;;;;5149836;27;45328;-66
2024/01/15 06:06:35;;;;;;;7.63;4.25;;;18.10;30.30;;;;;;5148255;27;45359;-66
2024/01/15 06:09:05;;;;;;;8.35;4.28;;;18.10;30.30;;;;;;5148839;27;45431;-66
2024/01/15 06:11:32;;;;;;;10.02;4.47;;;18.10;30.20;;;;;;5148043;27;46404;-66
2024/01/15 06:13:58;;;;;;;5.70;4.47;;;18.10;30.20;;;;;;5148114;27;45412;-66
2024/01/15 06:16:25;;;;;;;8.18;4.72;;;18.20;30.30;;;;;;5148762;27;45340;-65
2024/01/15 06:18:52;;;;;;;8.00;4.57;;;18.20;30.20;;;;;;5148672;27;45255;-66
2024/01/15 06:21:19;;;;;;;7.57;4.95;;;18.20;30.20;;;;;;5148074;27;46388;-66
2024/01/15 06:23:47;;;;;;;9.02;6.53;;;18.30;30.20;;;;;;5148127;27;45381;-67
2024/01/15 06:26:14;;;;;;;7.05;4.30;;;18.30;30.10;;;;;;5148355;27;45293;-66
2024/01/15 06:28:41;;;;;;;6.75;4.50;;;18.30;30.10;;;;;;5148253;27;45418;-66
2024/01/15 06:31:07;;;;;;;12.00;4.80;;;18.30;30.10;;;;;;5148039;27;46703;-66
2024/01/15 06:33:34;;;;;;;11.18;4.55;;;18.40;30.10;;;;;;5147867;27;45356;-66
2024/01/15 06:36:01;;;;;;;9.13;4.60;;;18.40;30.10;;;;;;5148232;27;45458;-66
2024/01/15 06:38:28;;;;;;;9.80;4.50;;;18.30;30.10;;;;;;5148141;27;45378;-65
2024/01/15 06:40:56;;;;;;;8.40;4.63;;;18.40;30.70;;;;;;5147362;27;46389;-66
2024/01/15 06:43:23;;;;;;;8.35;4.50;;;18.40;30.00;;;;;;5148107;27;45299;-65
2024/01/15 06:45:50;;;;;;;8.60;4.55;;;18.50;30.60;;;;;;5147959;27;45285;-66
2024/01/15 06:48:17;;;;;;;7.97;4.80;;;18.40;30.00;;;;;;5148071;27;45429;-66
2024/01/15 06:50:43;;;;;;;7.20;4.53;;;18.50;30.00;;;;;;5147686;27;45622;-66
2024/01/15 06:53:10;;;;;;;6.88;4.55;;;18.50;30.00;;;;;;5147838;27;45385;-65
2024/01/15 06:55:37;;;;;;;9.25;4.75;;;18.50;30.00;;;;;;5142529;27;45311;-65
2024/01/15 06:58:05;;;;;;;7.15;4.43;;;18.50;30.10;;;;;;5147908;27;45299;-65
2024/01/15 07:00:33;;;;;;;8.65;4.47;;;18.50;30.20;;;;;;5147811;27;45411;-66
2024/01/15 07:02:59;;;;;;;7.25;3.95;;;18.50;30.20;;;;;;5147725;27;45353;-64
2024/01/15 07:05:26;;;;;;;8.00;4.63;;;18.60;30.20;;;;;;5147741;27;45334;-66
2024/01/15 07:07:53;;;;;;;8.60;4.93;;;18.60;30.20;;;;;;5148456;27;45402;-65
2024/01/15 07:10:20;;;;;;;7.35;4.32;;;18.60;30.30;;;;;;5151273;27;46401;-65
2024/01/15 07:12:47;;;;;;;6.65;4.18;;;18.60;30.30;;;;;;5151400;27;45311;-67
2024/01/15 07:15:15;;;;;;;7.47;3.85;;;18.60;30.20;;;;;;5151296;27;45394;-66
2024/01/15 07:17:42;;;;;;;7.30;3.65;;;18.60;30.20;;;;;;5151811;27;45356;-66
2024/01/15 07:20:10;;;;;;;8.35;3.95;;;18.70;30.40;;;;;;5151177;27;46381;-66
2024/01/15 07:22:37;;;;;;;7.15;4.07;;;18.70;30.00;;;;;;5148537;27;45388;-66
2024/01/15 07:25:06;;;;;;;5.63;3.92;;;18.80;30.20;;;;;;5148398;27;44791;-66
2024/01/15 07:27:33;;;;;;;6.07;4.03;;;19.00;30.10;;;;;;5151113;27;45322;-66
2024/01/15 07:30:00;;;;;;;7.53;4.00;;;19.00;29.90;;;;;;5151170;27;46677;-73
2024/01/15 07:32:28;;;;;;;9.65;4.32;;;19.00;29.90;;;;;;5151613;27;45396;-75
2024/01/15 07:34:55;;;;;;;6.80;4.00;;;19.10;29.70;;;;;;5151287;27;45339;-68
2024/01/15 07:37:23;;;;;;;7.25;4.30;;;19.20;29.70;;;;;;5152159;27;45305;-77
2024/01/15 07:39:50;;;;;;;7.43;4.07;;;19.20;29.60;;;;;;5150832;27;45788;-67
2024/01/15 07:42:16;;;;;;;8.13;4.38;;;19.30;29.70;;;;;;5149843;27;45332;-68
2024/01/15 07:44:43;;;;;;;8.13;4.22;;;19.30;29.40;;;;;;5150814;27;45380;-64
2024/01/15 07:47:11;;;;;;;8.20;3.80;;;19.40;29.50;;;;;;5150911;27;45324;-65
2024/01/15 07:49:39;;;;;;;6.25;3.67;;;19.40;29.50;;;;;;5150751;27;46422;-64
2024/01/15 07:52:06;;;;;;;6.40;3.80;;;19.40;29.50;;;;;;5150458;27;45358;-64
2024/01/15 07:54:33;;;;;;;4.93;3.42;;;19.50;29.50;;;;;;5150888;27;45340;-67
2024/01/15 07:57:01;;;;;;;5.90;3.42;;;19.50;29.50;;;;;;5150695;27;45311;-68
2024/01/15 07:59:27;;;;;;;7.95;3.60;;;19.50;29.30;;;;;;5150555;27;45249;-67
2024/01/15 08:01:54;;;;;;;9.75;4.15;;;19.60;29.40;;;;;;5149383;27;45466;-68
2024/01/15 08:04:21;;;;;;;6.65;3.67;;;19.60;29.50;;;;;;5150246;27;45377;-64
2024/01/15 08:06:50;;;;;;;8.13;3.85;;;19.60;29.50;;;;;;5147145;27;45519;-65
2024/01/15 08:09:16;;;;;;;7.28;3.60;;;19.50;29.50;;;;;;5149842;27;46389;-66
2024/01/15 08:11:44;;;;;;;6.53;3.50;;;19.60;29.40;;;;;;5149414;27;45221;-69
2024/01/15 08:14:11;;;;;;;6.03;4.07;;;19.60;29.50;;;;;;5146996;27;45254;-67
2024/01/15 08:16:38;;;;;;;6.55;4.03;;;19.60;29.40;;;;;;5149886;27;45489;-72
2024/01/15 08:19:05;;;;;;;9.07;3.72;;;19.70;29.50;;;;;;5149133;27;46381;-68
2024/01/15 08:21:32;;;;;;;13.98;3.80;;;19.60;29.60;;;;;;5148889;27;45327;-72
2024/01/15 08:24:02;;;;;;;5.93;3.70;;;19.50;29.90;;;;;;5149773;27;45379;-70
2024/01/15 08:26:28;;;;;;;7.47;3.72;;;19.50;29.70;;;;;;5149920;27;45462;-69
2024/01/15 08:28:55;;;;;;;5.05;3.67;;;19.50;29.70;;;;;;5149798;27;47272;-72
2024/01/15 08:31:22;;;;;;;7.93;4.22;;;19.40;29.80;;;;;;5149196;27;45305;-69
2024/01/15 08:33:49;;;;;;;7.13;3.90;;;19.30;29.90;;;;;;5150191;27;45313;-69
2024/01/15 08:36:16;;;;;;;9.75;4.18;;;19.30;30.40;;;;;;5149468;27;45548;-68
2024/01/15 08:38:43;;;;;;;11.98;3.47;;;19.30;30.00;;;;;;5145772;27;46398;-64
2024/01/15 08:41:11;;;;;;;7.57;4.07;;;19.20;30.00;;;;;;5148774;27;45437;-67
2024/01/15 08:43:38;;;;;;;8.60;3.67;;;19.20;30.00;;;;;;5149160;27;45352;-77
2024/01/15 08:46:05;;;;;;;11.73;4.90;;;19.20;30.00;;;;;;5152153;27;45551;-74
2024/01/15 08:48:32;;;;;;;9.00;3.92;;;19.10;30.20;;;;;;5153559;27;46657;-73
2024/01/15 08:50:59;;;;;;;9.85;3.90;;;19.10;31.00;;;;;;5152648;27;45320;-70
2024/01/15 08:53:26;;;;;;;8.23;3.78;;;19.10;30.30;;;;;;5149898;27;45236;-71
2024/01/15 08:55:52;;;;;;;7.93;3.75;;;19.20;30.40;;;;;;5149919;27;45264;-74
2024/01/15 08:58:21;;;;;;;6.70;4.05;;;19.20;30.40;;;;;;5149289;27;45451;-71
2024/01/15 09:00:47;;;;;;;7.38;4.30;;;19.30;30.30;;;;;;5149301;27;45328;-66
2024/01/15 09:03:14;;;;;;;7.63;3.72;;;19.30;30.20;;;;;;5149637;27;45510;-64
2024/01/15 09:05:42;;;;;;;7.70;4.25;;;19.30;30.40;;;;;;5149465;27;45353;-65
2024/01/15 09:08:09;;;;;;;6.82;3.58;;;19.40;30.00;;;;;;5148860;27;45388;-67
2024/01/15 09:10:36;;;;;;;5.88;3.60;;;19.30;30.00;;;;;;5149277;27;45214;-65
2024/01/15 09:13:04;;;;;;;10.35;3.92;;;19.30;30.00;;;;;;5149086;27;45349;-63
2024/01/15 09:15:32;;;;;;;9.95;3.67;;;19.30;30.20;;;;;;5149298;27;45303;-64
2024/01/15 09:17:59;;;;;;;8.57;3.97;;;19.40;30.30;;;;;;5148774;27;45214;-65
2024/01/15 09:20:27;;;;;;;5.85;3.30;;;19.40;30.00;;;;;;5149021;27;45238;-65
2024/01/15 09:22:54;;;;;;;6.25;3.10;;;19.50;30.00;;;;;;5148974;27;45354;-65
2024/01/15 09:25:21;;;;;;;6.30;3.45;;;19.60;29.90;;;;;;5149277;27;45459;-71
2024/01/15 09:27:48;;;;;;;5.43;3.30;;;19.70;29.90;;;;;;5149739;27;46393;-72
2024/01/15 09:30:15;;;;;;;6.07;3.78;;;19.60;30.00;;;;;;5149567;27;45250;-71
2024/01/15 09:32:43;;;;;;;5.85;3.35;;;19.60;29.90;;;;;;5149271;27;45272;-71
2024/01/15 09:35:10;;;;;;;5.53;3.17;;;19.60;29.90;;;;;;5150070;27;45418;-71
2024/01/15 09:37:38;;;;;;;6.93;3.50;;;19.50;29.90;;;;;;5149815;27;46496;-74
2024/01/15 09:40:06;;;;;;;8.88;3.28;;;19.50;30.00;;;;;;5149781;27;45301;-71
2024/01/15 09:42:33;;;;;;;6.18;3.20;;;19.40;30.00;;;;;;5149500;27;45429;-71
2024/01/15 09:45:00;;;;;;;7.15;3.63;;;19.30;30.10;;;;;;5149405;27;45362;-70
2024/01/15 09:47:26;;;;;;;7.10;3.35;;;19.30;30.20;;;;;;5149173;27;47278;-71
2024/01/15 09:49:57;;;;;;;6.20;3.53;;;19.30;30.30;;;;;;5148816;27;45318;-71
2024/01/15 09:52:24;;;;;;;7.50;3.55;;;19.30;30.40;;;;;;5149529;27;45357;-72
2024/01/15 09:54:51;;;;;;;5.93;3.75;;;19.20;30.50;;;;;;5149750;27;45440;-71
2024/01/15 09:57:18;;;;;;;6.45;3.70;;;19.20;30.60;;;;;;5149275;27;47526;-72
2024/01/15 09:59:45;;;;;;;5.35;3.60;;;19.10;30.60;;;;;;5149347;27;45312;-71
2024/01/15 10:02:14;;;;;;;11.75;3.42;;;19.10;30.70;;;;;;5148620;27;45325;-71
2024/01/15 10:04:41;;;;;;;6.65;3.80;;;19.00;31.10;;;;;;5147942;27;45471;-71
2024/01/15 10:07:09;;;;;;;5.22;3.40;;;18.90;31.10;;;;;;5148657;27;46493;-68
2024/01/15 10:09:36;;;;;;;4.82;3.45;;;18.90;30.70;;;;;;5148720;27;45266;-69
2024/01/15 10:12:03;;;;;;;6.28;3.08;;;18.80;30.90;;;;;;5148718;27;45460;-69
2024/01/15 10:14:30;;;;;;;6.78;3.45;;;18.70;31.00;;;;;;5149182;27;45323;-68
2024/01/15 10:16:57;;;;;;;13.48;3.97;;;18.70;31.10;;;;;;5148108;27;46382;-69
2024/01/15 10:19:24;;;;;;;5.65;3.25;;;18.70;31.10;;;;;;5148299;27;45464;-69
2024/01/15 10:21:51;;;;;;;5.72;3.30;;;18.70;31.10;;;;;;5141685;27;45400;-69
2024/01/15 10:24:19;;;;;;;6.30;3.38;;;18.80;31.20;;;;;;5148687;27;45716;-72
2024/01/15 10:26:46;;;;;;;5.85;3.53;;;18.80;31.20;;;;;;5148354;27;46780;-69
2024/01/15 10:29:13;;;;;;;8.23;3.45;;;18.80;31.20;;;;;;5147755;27;45357;-69
2024/01/15 10:31:39;;;;;;;5.38;3.70;;;18.90;31.20;;;;;;5147546;27;45288;-69
2024/01/15 10:34:15;;;;;;;6.55;3.40;;;19.00;31.10;;;;;;5146992;27;45535;-70
2024/01/15 10:36:42;;;;;;;6.55;3.50;;;19.00;31.00;;;;;;5146760;27;45697;-72
2024/01/15 10:39:09;;;;;;;6.68;3.92;;;19.10;30.90;;;;;;5148039;27;45450;-70
2024/01/15 10:41:37;;;;;;;6.28;3.67;;;19.10;30.80;;;;;;5148276;27;45441;-70
2024/01/15 10:44:04;;;;;;;4.70;3.65;;;19.10;30.80;;;;;;5151976;27;45182;-70
2024/01/15 10:46:31;;;;;;;6.90;3.75;;;19.20;30.80;;;;;;5151600;27;46372;-70
2024/01/15 10:48:58;;;;;;;9.82;4.13;;;19.20;30.70;;;;;;5151620;27;45572;-70
2024/01/15 10:51:25;;;;;;;7.13;3.42;;;19.20;30.70;;;;;;5151573;27;45353;-72
2024/01/15 10:53:52;;;;;;;8.80;3.90;;;19.30;30.70;;;;;;5151318;27;45354;-69
2024/01/15 10:56:19;;;;;;;11.20;4.80;;;19.30;30.60;;;;;;5150704;27;48414;-69
2024/01/15 10:58:47;;;;;;;7.50;4.07;;;19.30;30.60;;;;;;5151717;27;45282;-70
2024/01/15 11:01:14;;;;;;;5.35;3.13;;;19.30;30.50;;;;;;5148443;27;45326;-70
2024/01/15 11:03:41;;;;;;;9.52;3.42;;;19.30;30.60;;;;;;5151166;27;45388;-70
2024/01/15 11:06:17;;;;;;;10.60;3.92;;;19.40;30.60;;;;;;5141512;27;45486;-70
2024/01/15 11:08:44;;;;;;;8.15;3.63;;;19.40;30.50;;;;;;5151837;27;45269;-70
2024/01/15 11:11:11;;;;;;;6.00;3.88;;;19.40;30.40;;;;;;5152001;27;45371;-70
2024/01/15 11:13:41;;;;;;;6.95;4.53;;;19.40;30.40;;;;;;5151954;27;45605;-70
2024/01/15 11:16:11;;;;;;;9.95;3.60;;;19.40;30.40;;;;;;5151693;27;45312;-71
2024/01/15 11:18:39;;;;;;;9.02;4.13;;;19.40;30.50;;;;;;5151798;27;45365;-70
2024/01/15 11:21:24;;;;;;;8.13;4.03;;;19.40;30.50;;;;;;5149360;27;45404;-69
2024/01/15 11:23:52;;;;;;;13.70;3.92;;;19.30;30.60;;;;;;5152019;27;45405;-69
2024/01/15 11:26:33;;;;;;;9.38;4.00;;;19.30;30.60;;;;;;5151461;27;45247;-69
2024/01/15 11:29:00;;;;;;;4.30;3.53;;;19.30;30.70;;;;;;5151611;27;45396;-69
2024/01/15 11:31:30;;;;;;;9.32;4.60;;;19.20;30.80;;;;;;5151294;27;45404;-68
2024/01/15 11:34:00;;;;;;;8.18;3.95;;;19.20;30.90;;;;;;5151019;27;45325;-70
2024/01/15 11:37:00;;;;;;;9.98;4.18;;;19.20;31.00;;;;;;5151733;27;46714;-70
2024/01/15 11:39:43;;;;;;;6.85;3.22;;;19.10;31.10;;;;;;5151756;27;45263;-71
2024/01/15 11:42:11;;;;;;;12.65;3.78;;;19.10;31.80;;;;;;5151253;27;45145;-68
2024/01/15 11:44:38;;;;;;;9.88;3.58;;;19.10;31.30;;;;;;5151742;27;45530;-70
2024/01/15 11:47:07;;;;;;;7.00;3.58;;;19.00;31.30;;;;;;5151228;27;46381;-69
2024/01/15 11:50:08;;;;;;;9.80;3.80;;;19.00;31.40;;;;;;5151104;27;45288;-68
2024/01/15 11:52:36;;;;;;;10.05;4.03;;;18.90;31.40;;;;;;5102481;27;45540;-69
2024/01/15 11:55:11;;;;;;;8.02;3.70;;;18.90;31.50;;;;;;5151072;27;45440;-69
2024/01/15 11:57:46;;;;;;;9.20;3.85;;;18.80;31.60;;;;;;5151363;27;45474;-70
2024/01/15 12:00:14;;;;;;;12.20;4.20;;;18.70;31.60;;;;;;5151651;27;45263;-69
2024/01/15 12:02:42;;;;;;;10.10;3.97;;;18.70;31.70;;;;;;5151032;27;45353;-69
2024/01/15 12:05:16;;;;;;;6.65;3.45;;;18.70;31.80;;;;;;5150881;27;45348;-69
2024/01/15 12:07:43;;;;;;;6.38;3.67;;;18.70;31.80;;;;;;5150321;27;45309;-69
2024/01/15 12:10:11;;;;;;;6.05;3.38;;;18.70;31.80;;;;;;5150793;27;45312;-69
2024/01/15 12:12:55;;;;;;;4.78;3.38;;;18.80;31.80;;;;;;5151095;27;45305;-70
2024/01/15 12:15:22;;;;;;;7.80;3.92;;;18.80;31.70;;;;;;5148371;27;45508;-70
2024/01/15 12:17:50;;;;;;;10.00;4.28;;;18.90;31.60;;;;;;5150660;27;45262;-70
2024/01/15 12:20:18;;;;;;;8.88;4.05;;;19.00;31.50;;;;;;5150654;27;45188;-70
2024/01/15 12:22:45;;;;;;;6.97;3.38;;;19.00;31.40;;;;;;5150938;27;45436;-69
2024/01/15 12:25:12;;;;;;;7.65;3.60;;;19.10;31.30;;;;;;5150850;27;45621;-69
2024/01/15 12:27:39;;;;;;;8.95;3.83;;;19.20;31.20;;;;;;5147827;27;46771;-69
2024/01/15 12:30:08;;;;;;;7.45;3.45;;;19.20;31.10;;;;;;5150312;27;45319;-69
2024/01/15 12:32:35;;;;;;;5.63;3.65;;;19.30;31.00;;;;;;5150462;27;45320;-70
2024/01/15 12:35:04;;;;;;;7.05;4.03;;;19.30;30.90;;;;;;5150840;27;45432;-70
2024/01/15 12:37:31;;;;;;;5.40;3.40;;;19.30;30.90;;;;;;5150564;27;47083;-69
2024/01/15 12:39:59;;;;;;;7.07;3.97;;;19.30;30.80;;;;;;5150481;27;45294;-69
2024/01/15 12:42:26;;;;;;;5.22;3.67;;;19.40;30.80;;;;;;5150666;27;45418;-69
2024/01/15 12:44:53;;;;;;;7.57;4.10;;;19.40;30.80;;;;;;5150717;27;45288;-70
2024/01/15 12:47:20;;;;;;;7.45;4.15;;;19.40;30.80;;;;;;5150368;27;46401;-69